Home   Weather   Escalante Desert   Past weeks
Flag for USA

Past Weather in Escalante Desert, Utah, USA — October 2019

Currently: 14 °F. Sunny. (Weather station: Cedar City Municipal Airport, USA). See more current weather

October 2019 Weather in Escalante Desert — Graph

°F

High & Low Weather Summary for October 2019

 TemperatureHumidityPressure
High78 °F (Oct 8, 2:53 pm)100% (Oct 18, 6:53 am)30.58 "Hg (Oct 18, 6:53 am)
Low5 °F (Oct 30, 5:53 am)6% (Oct 12, 5:53 pm)29.49 "Hg (Oct 17, 4:53 pm)
Average45 °F34%30.05 "Hg
* Reported Oct 1 12:53 am — Oct 31 11:53 pm, Escalante Desert. Weather by CustomWeather, © 2020

Note: Actual official high and low records may vary slightly from our data, if they occured in-between our weather recording intervals... More about our weather records

Escalante Desert Weather History for October 1, 2019

Scroll right to see more
 ConditionsComfort  
Time TempWeatherWind HumidityBarometerVisibility
12:53 am
Tue, Oct 1
41 °FClear.7 mph39%29.76 "Hg10 mi
1:53 am33 °FClear.5 mph48%29.78 "Hg10 mi
2:53 am33 °FClear.7 mph48%29.78 "Hg10 mi
3:53 am32 °FClear.No wind45%29.78 "Hg10 mi
4:53 am32 °FClear.5 mph43%29.80 "Hg10 mi
5:53 am31 °FClear.5 mph47%29.81 "Hg10 mi
6:53 am32 °FClear.No wind59%29.83 "Hg10 mi
7:53 am32 °FSunny.3 mph69%29.84 "Hg10 mi
8:53 am39 °FSunny.No wind65%29.84 "Hg10 mi
9:53 am42 °FSunny.3 mph57%29.85 "Hg10 mi
10:53 am47 °FSunny.5 mph44%29.87 "Hg10 mi
11:53 am50 °FSunny.No wind35%29.86 "Hg10 mi
12:53 pm57 °FSunny.7 mph26%29.81 "Hg10 mi
1:53 pm63 °FSunny.10 mph12%29.80 "Hg10 mi
2:53 pm63 °FSunny.20 mph11%29.79 "Hg10 mi
3:53 pm64 °FSunny.18 mph9%29.79 "Hg10 mi
4:53 pm63 °FSunny.21 mph11%29.78 "Hg10 mi
5:53 pm61 °FSunny.17 mph11%29.80 "Hg10 mi
6:53 pm58 °FSunny.20 mph14%29.82 "Hg10 mi
7:53 pm55 °FClear.9 mph18%29.85 "Hg10 mi
8:53 pm49 °FClear.5 mph22%29.88 "Hg10 mi
9:53 pm48 °FClear.5 mph23%29.89 "Hg10 mi
10:53 pm44 °FClear.8 mph34%29.90 "Hg10 mi
11:53 pm44 °FClear.8 mph29%29.90 "Hg10 mi
Weather by CustomWeather, © 2020

See weather overview